Time;durP1;ratioP1;P1;durP2;ratioP2;P2;SDS_P1;SDS_P2;PMS_P1;PMS_P2;Temp;Humidity;BMP_temperature;BMP_pressure;BME280_temperature;BME280_humidity;BME280_pressure;Samples;Min_cycle;Max_cycle;Signal;HPM_P1;HPM_P2
2022/04/14 00:00:30;;;;;;;6.95;4.60;;;;;;;;;;5052148;28;20076;-78
2022/04/14 00:02:56;;;;;;;8.90;5.18;;;;;;;;;;5052580;28;20473;-81
2022/04/14 00:05:22;;;;;;;6.78;4.47;;;;;;;;;;5051002;28;20120;-81
2022/04/14 00:07:48;;;;;;;7.18;4.78;;;;;;;;;;5051005;28;20056;-79
2022/04/14 00:10:15;;;;;;;8.43;4.53;;;;;;;;;;5052016;28;20021;-81
2022/04/14 00:12:42;;;;;;;8.70;5.57;;;;;;;;;;5050947;28;20052;-79
2022/04/14 00:15:09;;;;;;;7.95;5.22;;;;;;;;;;5051917;28;20033;-78
2022/04/14 00:17:37;;;;;;;13.65;6.43;;;;;;;;;;5051001;28;20033;-79
2022/04/14 00:20:11;;;;;;;7.95;4.80;;;;;;;;;;5051912;28;20528;-79
2022/04/14 00:22:40;;;;;;;6.85;4.88;;;;;;;;;;5052088;28;20033;-81
2022/04/14 00:25:07;;;;;;;9.52;4.00;;;;;;;;;;5051962;28;20017;-80
2022/04/14 00:27:33;;;;;;;5.03;3.60;;;;;;;;;;5052041;28;20018;-81
2022/04/14 00:29:59;;;;;;;4.65;4.00;;;;;;;;;;5051865;28;20029;-78
2022/04/14 00:32:25;;;;;;;5.43;4.10;;;;;;;;;;5052041;28;20028;-82
2022/04/14 00:34:51;;;;;;;7.72;4.90;;;;;;;;;;5050589;28;20029;-79
2022/04/14 00:37:17;;;;;;;8.13;4.43;;;;;;;;;;5051678;28;20021;-81
2022/04/14 00:39:44;;;;;;;6.50;4.45;;;;;;;;;;5050778;28;20017;-81
2022/04/14 00:42:18;;;;;;;5.43;4.00;;;;;;;;;;5051889;28;20078;-81
2022/04/14 00:44:44;;;;;;;7.07;4.10;;;;;;;;;;5050661;28;20048;-81
2022/04/14 00:47:12;;;;;;;5.68;4.18;;;;;;;;;;5051765;28;20021;-80
2022/04/14 00:49:39;;;;;;;6.65;4.35;;;;;;;;;;5050551;28;20063;-79
2022/04/14 00:52:08;;;;;;;7.78;5.00;;;;;;;;;;5051657;28;20025;-80
2022/04/14 00:54:34;;;;;;;6.70;4.53;;;;;;;;;;5053878;28;20029;-80
2022/04/14 00:57:01;;;;;;;7.22;4.55;;;;;;;;;;5055170;28;20025;-81
2022/04/14 00:59:28;;;;;;;6.45;4.75;;;;;;;;;;5055129;28;20084;-81
2022/04/14 01:02:03;;;;;;;7.25;4.22;;;;;;;;;;5054071;28;20385;-78
2022/04/14 01:04:29;;;;;;;7.93;4.45;;;;;;;;;;5053930;28;20029;-80
2022/04/14 01:06:56;;;;;;;7.03;4.32;;;;;;;;;;5055143;28;20490;-78
2022/04/14 01:09:23;;;;;;;5.70;3.75;;;;;;;;;;5055229;28;20025;-82
2022/04/14 01:11:51;;;;;;;6.20;3.92;;;;;;;;;;5055159;28;20044;-79
2022/04/14 01:14:21;;;;;;;5.97;4.38;;;;;;;;;;5055004;28;20083;-80
2022/04/14 01:16:49;;;;;;;6.25;3.75;;;;;;;;;;5054958;28;20025;-79
2022/04/14 01:19:15;;;;;;;6.95;4.35;;;;;;;;;;5054989;28;20034;-79
2022/04/14 01:21:45;;;;;;;7.35;4.25;;;;;;;;;;5054960;28;20036;-81
2022/04/14 01:24:11;;;;;;;4.80;4.18;;;;;;;;;;5054862;28;20025;-78
2022/04/14 01:26:40;;;;;;;7.20;3.47;;;;;;;;;;5054993;28;20094;-79
2022/04/14 01:29:06;;;;;;;5.45;3.88;;;;;;;;;;5054606;28;20036;-78
2022/04/14 01:31:33;;;;;;;5.72;3.60;;;;;;;;;;5054599;28;20380;-80
2022/04/14 01:33:59;;;;;;;4.53;3.53;;;;;;;;;;5054369;28;20138;-78
2022/04/14 01:36:30;;;;;;;7.18;3.78;;;;;;;;;;5054747;28;20025;-80
2022/04/14 01:38:56;;;;;;;6.07;4.00;;;;;;;;;;5054363;28;20025;-80
2022/04/14 01:41:24;;;;;;;6.90;4.03;;;;;;;;;;5054733;28;20025;-80
2022/04/14 01:43:53;;;;;;;5.05;3.40;;;;;;;;;;5052936;28;20029;-81
2022/04/14 01:46:19;;;;;;;6.93;3.35;;;;;;;;;;5054464;28;20029;-78
2022/04/14 01:48:47;;;;;;;5.63;3.78;;;;;;;;;;5054170;28;20412;-79
2022/04/14 01:51:13;;;;;;;4.90;3.40;;;;;;;;;;5053112;28;20048;-82
2022/04/14 01:53:40;;;;;;;11.73;7.53;;;;;;;;;;5054214;28;20116;-79
2022/04/14 01:56:06;;;;;;;4.68;3.85;;;;;;;;;;5054027;28;20025;-78
2022/04/14 01:58:32;;;;;;;8.00;4.35;;;;;;;;;;5054061;28;20135;-82
2022/04/14 02:00:58;;;;;;;7.35;3.97;;;;;;;;;;5054146;28;20079;-82
2022/04/14 02:03:26;;;;;;;4.85;3.72;;;;;;;;;;5053701;28;20024;-80
2022/04/14 02:05:53;;;;;;;6.82;4.43;;;;;;;;;;5053781;28;20075;-78
2022/04/14 02:08:19;;;;;;;6.10;4.00;;;;;;;;;;5054071;28;20029;-78
2022/04/14 02:10:45;;;;;;;5.72;3.97;;;;;;;;;;5052729;28;20025;-80
2022/04/14 02:15:58;;;;;;;6.35;3.72;;;;;;;;;;5052959;28;20041;-81
2022/04/14 02:18:24;;;;;;;7.63;4.13;;;;;;;;;;5053868;28;20028;-81
2022/04/14 02:20:50;;;;;;;6.05;4.07;;;;;;;;;;5053618;28;20032;-78
2022/04/14 02:23:17;;;;;;;7.38;4.35;;;;;;;;;;5053824;28;20032;-78
2022/04/14 02:25:43;;;;;;;7.57;4.03;;;;;;;;;;5053785;28;20400;-79
2022/04/14 02:28:09;;;;;;;6.65;3.63;;;;;;;;;;5052432;28;20484;-80
2022/04/14 02:30:35;;;;;;;4.72;3.28;;;;;;;;;;5053431;28;20029;-82
2022/04/14 02:33:02;;;;;;;5.45;3.67;;;;;;;;;;5053550;28;20021;-77
2022/04/14 02:35:28;;;;;;;6.22;3.80;;;;;;;;;;5053497;28;20064;-78
2022/04/14 02:37:57;;;;;;;4.45;3.10;;;;;;;;;;5053323;28;20060;-81
2022/04/14 02:40:24;;;;;;;5.63;3.70;;;;;;;;;;5053434;28;20102;-79
2022/04/14 02:42:54;;;;;;;6.43;3.83;;;;;;;;;;5053142;28;20024;-80
2022/04/14 02:45:23;;;;;;;5.15;3.50;;;;;;;;;;5052975;28;20024;-80
2022/04/14 02:47:50;;;;;;;8.23;3.92;;;;;;;;;;5051846;28;20043;-81
2022/04/14 02:50:16;;;;;;;5.75;3.90;;;;;;;;;;5052922;28;20400;-78
2022/04/14 02:52:42;;;;;;;8.30;3.80;;;;;;;;;;5053100;28;20029;-77
2022/04/14 02:55:08;;;;;;;4.22;3.80;;;;;;;;;;5052996;28;20075;-77
2022/04/14 02:57:35;;;;;;;5.32;3.45;;;;;;;;;;5053069;28;20028;-78
2022/04/14 03:00:01;;;;;;;7.35;3.78;;;;;;;;;;5052535;28;20048;-77
2022/04/14 03:02:28;;;;;;;6.05;4.07;;;;;;;;;;5053036;28;20060;-80
2022/04/14 03:04:54;;;;;;;5.45;3.75;;;;;;;;;;5051568;28;20112;-79
2022/04/14 03:07:20;;;;;;;5.45;3.55;;;;;;;;;;5052651;28;20107;-79
2022/04/14 03:09:48;;;;;;;6.95;3.60;;;;;;;;;;5052946;28;20021;-81
2022/04/14 03:12:14;;;;;;;4.18;3.70;;;;;;;;;;5051540;28;20024;-81
2022/04/14 03:14:41;;;;;;;6.95;4.03;;;;;;;;;;5052286;28;20068;-79
2022/04/14 03:17:07;;;;;;;11.48;5.38;;;;;;;;;;5052442;28;20021;-78
2022/04/14 03:19:33;;;;;;;8.43;4.45;;;;;;;;;;5052749;28;20028;-79
2022/04/14 03:21:59;;;;;;;6.57;4.20;;;;;;;;;;5052444;28;20052;-81
2022/04/14 03:24:25;;;;;;;8.57;4.28;;;;;;;;;;5052514;28;20020;-78
2022/04/14 03:26:52;;;;;;;8.85;5.80;;;;;;;;;;5052365;28;20028;-80
2022/04/14 03:29:18;;;;;;;9.73;6.32;;;;;;;;;;5052414;28;20021;-81
2022/04/14 03:31:44;;;;;;;7.47;4.60;;;;;;;;;;5052505;28;20052;-81
2022/04/14 03:34:10;;;;;;;13.93;9.82;;;;;;;;;;5051306;28;20037;-80
2022/04/14 03:36:36;;;;;;;5.70;3.92;;;;;;;;;;5052399;28;20033;-78
2022/04/14 03:39:04;;;;;;;5.68;3.90;;;;;;;;;;5051960;28;20029;-81
2022/04/14 03:41:30;;;;;;;6.07;4.90;;;;;;;;;;5052354;28;20029;-78
2022/04/14 03:43:57;;;;;;;6.22;4.30;;;;;;;;;;5052081;28;20052;-78
2022/04/14 03:46:23;;;;;;;7.38;4.28;;;;;;;;;;5052290;28;20025;-81
2022/04/14 03:48:52;;;;;;;8.38;5.28;;;;;;;;;;5050961;28;20423;-79
2022/04/14 03:51:18;;;;;;;6.97;3.95;;;;;;;;;;5051020;28;20033;-78
2022/04/14 03:53:44;;;;;;;5.45;4.35;;;;;;;;;;5052328;28;20025;-81
2022/04/14 03:56:11;;;;;;;6.20;4.30;;;;;;;;;;5050817;28;20033;-78
2022/04/14 03:58:37;;;;;;;6.05;4.13;;;;;;;;;;5052044;28;20107;-78
2022/04/14 04:01:04;;;;;;;6.20;4.53;;;;;;;;;;5051963;28;20033;-81
2022/04/14 04:03:30;;;;;;;6.13;3.80;;;;;;;;;;5052051;28;20037;-81
2022/04/14 04:06:03;;;;;;;9.70;5.28;;;;;;;;;;5052012;28;20017;-78
2022/04/14 04:08:29;;;;;;;7.40;4.57;;;;;;;;;;5052080;28;20028;-79
2022/04/14 04:10:55;;;;;;;10.15;5.38;;;;;;;;;;5050970;28;20025;-83
2022/04/14 04:13:21;;;;;;;10.75;6.00;;;;;;;;;;5051973;28;20029;-81
2022/04/14 04:15:50;;;;;;;10.35;5.05;;;;;;;;;;5051793;28;20025;-78
2022/04/14 04:18:16;;;;;;;9.07;6.05;;;;;;;;;;5051433;28;20029;-82
2022/04/14 04:20:42;;;;;;;12.40;7.20;;;;;;;;;;5051964;28;20025;-80
2022/04/14 04:23:08;;;;;;;9.18;5.88;;;;;;;;;;5051670;28;20017;-81
2022/04/14 04:25:34;;;;;;;11.23;9.90;;;;;;;;;;5051784;28;20093;-81
2022/04/14 04:28:01;;;;;;;9.57;7.20;;;;;;;;;;5051754;28;20080;-83
2022/04/14 04:30:27;;;;;;;11.73;8.27;;;;;;;;;;5046006;28;20022;-83
2022/04/14 04:32:53;;;;;;;9.75;7.45;;;;;;;;;;5036107;28;20030;-80
2022/04/14 04:35:19;;;;;;;13.07;8.57;;;;;;;;;;5034802;28;20116;-81
2022/04/14 04:37:46;;;;;;;11.23;8.05;;;;;;;;;;5035771;28;20104;-83
2022/04/14 04:40:12;;;;;;;11.75;6.85;;;;;;;;;;5034483;28;20021;-79
2022/04/14 04:42:38;;;;;;;8.63;5.88;;;;;;;;;;5035759;28;20026;-84
2022/04/14 04:45:05;;;;;;;12.65;5.95;;;;;;;;;;5035369;28;20091;-84
2022/04/14 04:47:31;;;;;;;5.03;4.40;;;;;;;;;;5034286;28;20060;-85
2022/04/14 04:50:00;;;;;;;9.07;5.97;;;;;;;;;;5035537;28;20018;-84
2022/04/14 04:52:26;;;;;;;8.10;4.97;;;;;;;;;;5035552;28;20060;-86
2022/04/14 04:54:52;;;;;;;5.68;4.60;;;;;;;;;;5035307;28;20033;-79
2022/04/14 04:57:18;;;;;;;7.00;4.53;;;;;;;;;;5034674;28;20026;-77
2022/04/14 04:59:44;;;;;;;11.25;6.28;;;;;;;;;;5034908;28;20053;-78
2022/04/14 05:02:10;;;;;;;8.30;4.80;;;;;;;;;;5035076;28;20029;-78
2022/04/14 05:04:36;;;;;;;8.07;4.15;;;;;;;;;;5035107;28;20065;-78
2022/04/14 05:07:03;;;;;;;6.43;4.07;;;;;;;;;;5034815;28;20472;-82
2022/04/14 05:09:29;;;;;;;13.93;5.70;;;;;;;;;;5041905;28;20046;-82
2022/04/14 05:11:55;;;;;;;6.03;4.55;;;;;;;;;;5041067;28;20079;-84
2022/04/14 05:14:21;;;;;;;7.68;5.22;;;;;;;;;;5053815;28;20345;-86
2022/04/14 05:16:47;;;;;;;11.00;6.95;;;;;;;;;;5055064;28;20044;-84
2022/04/14 05:19:13;;;;;;;10.65;6.32;;;;;;;;;;5054610;28;20029;-82
2022/04/14 05:21:39;;;;;;;25.80;18.95;;;;;;;;;;5054725;28;20107;-83
2022/04/14 05:24:06;;;;;;;26.38;16.77;;;;;;;;;;5054048;28;20030;-84
2022/04/14 05:26:32;;;;;;;33.78;11.90;;;;;;;;;;5054713;28;20025;-84
2022/04/14 05:28:59;;;;;;;31.42;16.88;;;;;;;;;;5054917;28;20033;-79
2022/04/14 05:31:25;;;;;;;34.58;18.13;;;;;;;;;;5054470;28;20449;-83
2022/04/14 05:33:51;;;;;;;26.23;17.75;;;;;;;;;;5049496;28;20036;-81
2022/04/14 05:36:17;;;;;;;21.38;12.95;;;;;;;;;;5033610;28;20480;-87
2022/04/14 05:38:43;;;;;;;21.90;15.50;;;;;;;;;;5042657;28;20051;-77
2022/04/14 05:41:10;;;;;;;19.30;10.85;;;;;;;;;;5048061;28;20075;-76
2022/04/14 05:43:36;;;;;;;13.13;9.82;;;;;;;;;;5045602;28;20066;-77
2022/04/14 05:46:03;;;;;;;13.45;9.07;;;;;;;;;;5050284;28;20025;-80
2022/04/14 05:48:29;;;;;;;16.10;10.50;;;;;;;;;;5052874;28;20025;-77
2022/04/14 05:50:55;;;;;;;14.75;10.13;;;;;;;;;;5052994;28;20484;-78
2022/04/14 05:53:29;;;;;;;11.05;9.23;;;;;;;;;;5052502;28;20029;-76
2022/04/14 05:55:56;;;;;;;12.48;9.50;;;;;;;;;;5051488;28;20618;-75
2022/04/14 05:58:22;;;;;;;12.65;8.35;;;;;;;;;;5052108;28;20100;-76
2022/04/14 06:00:48;;;;;;;13.77;9.57;;;;;;;;;;5051054;28;20060;-75
2022/04/14 06:03:14;;;;;;;14.63;9.75;;;;;;;;;;5052803;28;20480;-79
2022/04/14 06:05:41;;;;;;;8.82;6.68;;;;;;;;;;5051252;28;20040;-80
2022/04/14 06:08:07;;;;;;;11.70;7.03;;;;;;;;;;5043889;28;20043;-84
2022/04/14 06:10:35;;;;;;;7.47;5.63;;;;;;;;;;5053329;28;20068;-86
2022/04/14 06:13:01;;;;;;;7.00;6.28;;;;;;;;;;5053022;28;20048;-81
2022/04/14 06:15:29;;;;;;;9.25;6.10;;;;;;;;;;5051294;28;20037;-79
2022/04/14 06:17:55;;;;;;;7.55;5.32;;;;;;;;;;5051350;28;20021;-82
2022/04/14 06:20:21;;;;;;;7.95;5.80;;;;;;;;;;5052528;28;20021;-80
2022/04/14 06:22:47;;;;;;;8.90;6.32;;;;;;;;;;5050461;28;20106;-78
2022/04/14 06:25:16;;;;;;;9.15;6.15;;;;;;;;;;5051909;28;20025;-80
2022/04/14 06:27:52;;;;;;;10.18;6.93;;;;;;;;;;5051773;28;20029;-81
2022/04/14 06:30:19;;;;;;;15.23;7.07;;;;;;;;;;5050971;28;20033;-81
2022/04/14 06:33:04;;;;;;;8.50;5.85;;;;;;;;;;5051836;28;20631;-77
2022/04/14 06:35:30;;;;;;;12.60;7.13;;;;;;;;;;5041239;28;20128;-80
2022/04/14 06:37:56;;;;;;;8.25;5.20;;;;;;;;;;5039314;28;20051;-78
2022/04/14 06:40:23;;;;;;;8.77;5.32;;;;;;;;;;5030048;28;20386;-79
2022/04/14 06:42:49;;;;;;;7.57;5.40;;;;;;;;;;5030419;28;20083;-81
2022/04/14 06:45:16;;;;;;;7.03;5.15;;;;;;;;;;5042759;28;20040;-81
2022/04/14 06:47:42;;;;;;;9.73;5.72;;;;;;;;;;5049931;28;20037;-81
2022/04/14 06:50:09;;;;;;;6.53;4.93;;;;;;;;;;5045889;28;20036;-78
2022/04/14 06:52:35;;;;;;;15.25;10.60;;;;;;;;;;5047605;28;20044;-80
2022/04/14 06:55:01;;;;;;;13.70;7.75;;;;;;;;;;5049099;28;20040;-82
2022/04/14 06:57:27;;;;;;;6.32;5.10;;;;;;;;;;5050154;28;20028;-81
2022/04/14 06:59:53;;;;;;;7.20;5.10;;;;;;;;;;5050888;28;20049;-79
2022/04/14 07:02:20;;;;;;;7.53;6.43;;;;;;;;;;5051245;28;20025;-82
2022/04/14 07:04:46;;;;;;;6.03;5.22;;;;;;;;;;5051343;28;20025;-82
2022/04/14 07:07:12;;;;;;;6.28;4.57;;;;;;;;;;5053706;28;20024;-82
2022/04/14 07:09:38;;;;;;;6.88;4.28;;;;;;;;;;5049752;28;20385;-79
2022/04/14 07:12:06;;;;;;;9.23;6.10;;;;;;;;;;5051605;28;20036;-82
2022/04/14 07:14:32;;;;;;;14.30;9.05;;;;;;;;;;5050730;28;20392;-78
2022/04/14 07:16:59;;;;;;;6.43;5.28;;;;;;;;;;5038217;28;20033;-80
2022/04/14 07:19:25;;;;;;;7.22;5.43;;;;;;;;;;5046993;28;20025;-81
2022/04/14 07:21:51;;;;;;;45.53;36.63;;;;;;;;;;5035529;28;20029;-81
2022/04/14 07:24:20;;;;;;;16.35;11.70;;;;;;;;;;5050020;28;20032;-80
2022/04/14 07:26:46;;;;;;;33.63;26.95;;;;;;;;;;5052403;28;20052;-80
2022/04/14 07:29:12;;;;;;;17.80;11.55;;;;;;;;;;5050555;28;20024;-81
2022/04/14 07:31:41;;;;;;;8.70;5.13;;;;;;;;;;5042559;28;20029;-80
2022/04/14 07:34:31;;;;;;;5.55;3.88;;;;;;;;;;5046084;28;20385;-81
2022/04/14 07:36:56;;;;;;;8.95;4.22;;;;;;;;;;5050770;28;20037;-81
2022/04/14 07:39:22;;;;;;;8.20;4.60;;;;;;;;;;5050301;28;20040;-81
2022/04/14 07:41:49;;;;;;;10.95;5.68;;;;;;;;;;5050346;28;20127;-81
2022/04/14 07:44:15;;;;;;;6.18;4.43;;;;;;;;;;5050871;28;20025;-82
2022/04/14 07:46:41;;;;;;;9.93;4.55;;;;;;;;;;5051250;28;20025;-81
2022/04/14 07:49:07;;;;;;;6.60;4.45;;;;;;;;;;5051033;28;20024;-80
2022/04/14 07:51:33;;;;;;;13.95;6.95;;;;;;;;;;5049264;28;20090;-83
2022/04/14 07:53:59;;;;;;;14.10;9.75;;;;;;;;;;5049785;28;20399;-82
2022/04/14 07:56:25;;;;;;;17.40;8.65;;;;;;;;;;5050557;28;20426;-80
2022/04/14 07:58:52;;;;;;;21.70;9.18;;;;;;;;;;5050625;28;20408;-81
2022/04/14 08:01:18;;;;;;;11.55;7.13;;;;;;;;;;5050126;28;20021;-80
2022/04/14 08:03:47;;;;;;;13.77;6.40;;;;;;;;;;5052142;28;20467;-81
2022/04/14 08:06:14;;;;;;;19.92;8.55;;;;;;;;;;5054031;28;20487;-82
2022/04/14 08:08:40;;;;;;;16.17;5.45;;;;;;;;;;5054192;28;20025;-81
2022/04/14 08:11:08;;;;;;;11.85;5.28;;;;;;;;;;5054937;28;20099;-78
2022/04/14 08:13:37;;;;;;;50.72;16.50;;;;;;;;;;5054325;28;20037;-77
2022/04/14 08:16:06;;;;;;;165.10;54.95;;;;;;;;;;5054371;28;20111;-75
2022/04/14 08:18:36;;;;;;;144.65;47.75;;;;;;;;;;5054174;28;20044;-81
2022/04/14 08:21:02;;;;;;;109.18;36.72;;;;;;;;;;5054692;28;20013;-79
2022/04/14 08:23:28;;;;;;;70.97;25.52;;;;;;;;;;5053988;28;20040;-79
2022/04/14 08:25:54;;;;;;;87.05;30.80;;;;;;;;;;5053110;28;20032;-76
2022/04/14 08:28:21;;;;;;;77.57;27.90;;;;;;;;;;5053810;28;20040;-82
2022/04/14 08:30:47;;;;;;;58.70;21.13;;;;;;;;;;5052033;28;20122;-79
2022/04/14 08:33:14;;;;;;;49.63;17.98;;;;;;;;;;5046444;28;20018;-78
2022/04/14 08:35:40;;;;;;;44.95;17.70;;;;;;;;;;5046906;28;20083;-80
2022/04/14 08:38:07;;;;;;;46.17;17.27;;;;;;;;;;5053581;28;20033;-82
2022/04/14 08:40:35;;;;;;;26.23;11.25;;;;;;;;;;5054553;28;20434;-80
2022/04/14 08:43:05;;;;;;;7.25;3.83;;;;;;;;;;5053132;28;20033;-81
2022/04/14 08:45:32;;;;;;;5.90;3.42;;;;;;;;;;5053367;28;20029;-83
2022/04/14 08:47:59;;;;;;;4.72;3.30;;;;;;;;;;5053925;28;20094;-78
2022/04/14 08:50:26;;;;;;;6.32;3.70;;;;;;;;;;5053872;28;20032;-79
2022/04/14 08:52:55;;;;;;;8.80;4.15;;;;;;;;;;5053240;28;20022;-81
2022/04/14 08:55:22;;;;;;;5.43;3.05;;;;;;;;;;5053005;28;20745;-83
2022/04/14 08:57:48;;;;;;;5.47;3.10;;;;;;;;;;5054379;28;20025;-81
2022/04/14 09:00:17;;;;;;;6.78;3.53;;;;;;;;;;5053721;28;20106;-79
2022/04/14 09:02:45;;;;;;;4.68;3.25;;;;;;;;;;5055791;28;20025;-83
2022/04/14 09:05:13;;;;;;;6.85;3.08;;;;;;;;;;5053945;28;20017;-80
2022/04/14 09:07:42;;;;;;;5.32;3.50;;;;;;;;;;5052519;28;20043;-85
2022/04/14 09:10:08;;;;;;;6.85;4.00;;;;;;;;;;5052721;28;20060;-82
2022/04/14 09:12:38;;;;;;;3.17;2.78;;;;;;;;;;5054146;28;20028;-83
2022/04/14 09:15:05;;;;;;;4.40;3.70;;;;;;;;;;5053853;28;20055;-78
2022/04/14 09:17:31;;;;;;;24.13;10.48;;;;;;;;;;5055434;28;20037;-82
2022/04/14 09:19:57;;;;;;;8.40;3.80;;;;;;;;;;5053658;28;20098;-82
2022/04/14 09:22:23;;;;;;;6.70;3.60;;;;;;;;;;5056373;28;20059;-82
2022/04/14 09:24:54;;;;;;;5.60;4.03;;;;;;;;;;5053421;28;20025;-81
2022/04/14 09:27:28;;;;;;;7.78;4.15;;;;;;;;;;5044537;28;20128;-82
2022/04/14 09:29:55;;;;;;;6.60;3.40;;;;;;;;;;5034991;28;20109;-82
2022/04/14 09:32:42;;;;;;;7.60;3.53;;;;;;;;;;5053299;28;20045;-84
2022/04/14 09:35:18;;;;;;;4.22;3.10;;;;;;;;;;5053424;28;20029;-83
2022/04/14 09:37:44;;;;;;;5.75;2.92;;;;;;;;;;5051673;28;20043;-80
2022/04/14 09:40:13;;;;;;;3.13;2.40;;;;;;;;;;5053287;28;20039;-81
2022/04/14 09:42:43;;;;;;;5.18;3.20;;;;;;;;;;5050721;28;20025;-83
2022/04/14 09:45:28;;;;;;;4.97;2.65;;;;;;;;;;5034911;28;20053;-78
2022/04/14 09:47:55;;;;;;;4.38;3.08;;;;;;;;;;5047138;28;20116;-79
2022/04/14 09:50:24;;;;;;;5.05;2.72;;;;;;;;;;5052745;28;20400;-79
2022/04/14 09:52:57;;;;;;;4.03;2.05;;;;;;;;;;5053439;28;20498;-83
2022/04/14 09:55:23;;;;;;;4.85;2.92;;;;;;;;;;5053486;28;20484;-81
2022/04/14 09:58:09;;;;;;;3.72;2.25;;;;;;;;;;5052239;28;20025;-84
2022/04/14 10:00:36;;;;;;;2.65;1.88;;;;;;;;;;5054723;28;20098;-79
2022/04/14 10:03:35;;;;;;;7.13;2.20;;;;;;;;;;5055683;28;20028;-83
2022/04/14 10:06:20;;;;;;;7.85;2.58;;;;;;;;;;5008806;28;20937;-80
2022/04/14 10:08:51;;;;;;;4.43;2.33;;;;;;;;;;5055005;28;20029;-80
2022/04/14 10:11:23;;;;;;;6.10;3.33;;;;;;;;;;5052659;28;20032;-86
2022/04/14 10:13:50;;;;;;;12.90;5.40;;;;;;;;;;5053292;28;20152;-77
2022/04/14 10:16:20;;;;;;;15.45;7.30;;;;;;;;;;5051799;28;20146;-77
2022/04/14 10:18:47;;;;;;;5.88;4.13;;;;;;;;;;5048649;28;20438;-78
2022/04/14 10:21:14;;;;;;;7.47;3.47;;;;;;;;;;5052343;28;20122;-77
2022/04/14 10:23:41;;;;;;;7.43;3.80;;;;;;;;;;5048031;28;20033;-77
2022/04/14 10:26:10;;;;;;;4.80;2.85;;;;;;;;;;5051615;28;20057;-80
2022/04/14 10:28:37;;;;;;;5.72;2.58;;;;;;;;;;5051166;28;20029;-78
2022/04/14 10:31:03;;;;;;;4.70;2.53;;;;;;;;;;5051690;28;20488;-76
2022/04/14 10:33:32;;;;;;;4.25;2.85;;;;;;;;;;5051616;28;20032;-78
2022/04/14 10:35:58;;;;;;;5.45;2.50;;;;;;;;;;5050375;28;20029;-79
2022/04/14 10:38:32;;;;;;;6.93;4.65;;;;;;;;;;5051670;28;20048;-79
2022/04/14 10:40:59;;;;;;;4.35;3.13;;;;;;;;;;5045555;28;20439;-86
2022/04/14 10:43:26;;;;;;;17.83;7.32;;;;;;;;;;5052189;28;20053;-79
2022/04/14 10:45:53;;;;;;;13.52;5.40;;;;;;;;;;5033666;28;20059;-82
2022/04/14 10:48:41;;;;;;;51.88;17.08;;;;;;;;;;5052541;28;20100;-80
2022/04/14 10:51:19;;;;;;;108.03;35.85;;;;;;;;;;5051710;28;20087;-77
2022/04/14 10:53:49;;;;;;;104.47;32.72;;;;;;;;;;5049116;28;20044;-81
2022/04/14 10:56:34;;;;;;;31.70;11.95;;;;;;;;;;5051662;28;20027;-83
2022/04/14 10:59:11;;;;;;;32.28;11.73;;;;;;;;;;5051408;28;20080;-82
2022/04/14 11:01:52;;;;;;;29.13;11.00;;;;;;;;;;5051279;28;20049;-80
2022/04/14 11:04:24;;;;;;;19.95;6.72;;;;;;;;;;5050801;28;20506;-82
2022/04/14 11:06:52;;;;;;;16.20;5.88;;;;;;;;;;5051813;28;20163;-79
2022/04/14 11:09:36;;;;;;;10.55;4.03;;;;;;;;;;5048409;28;20014;-77
2022/04/14 11:12:02;;;;;;;13.27;6.50;;;;;;;;;;5034400;28;20041;-74
2022/04/14 11:14:28;;;;;;;12.07;6.03;;;;;;;;;;5048826;28;20036;-82
2022/04/14 11:17:00;;;;;;;5.90;3.13;;;;;;;;;;5051099;28;20051;-77
2022/04/14 11:19:27;;;;;;;3.53;2.42;;;;;;;;;;5049115;28;20033;-76
2022/04/14 11:24:40;;;;;;;4.18;3.08;;;;;;;;;;5051415;28;20033;-79
2022/04/14 11:27:25;;;;;;;4.63;2.22;;;;;;;;;;5050071;28;20036;-79
2022/04/14 11:29:57;;;;;;;3.65;2.42;;;;;;;;;;5050366;28;20499;-82
2022/04/14 11:32:36;;;;;;;5.50;2.63;;;;;;;;;;5050374;28;20090;-79
2022/04/14 11:35:09;;;;;;;3.88;1.98;;;;;;;;;;5050937;28;20484;-79
2022/04/14 11:37:45;;;;;;;4.38;2.75;;;;;;;;;;5050830;28;20032;-80
2022/04/14 11:40:12;;;;;;;5.25;2.50;;;;;;;;;;5050643;28;20459;-84
2022/04/14 11:42:38;;;;;;;5.15;2.47;;;;;;;;;;5047641;28;20024;-78
2022/04/14 11:45:05;;;;;;;46.75;15.35;;;;;;;;;;5047928;28;20029;-76
2022/04/14 11:47:32;;;;;;;69.03;23.05;;;;;;;;;;5051060;28;20100;-76
2022/04/14 11:49:58;;;;;;;153.52;48.90;;;;;;;;;;5051570;28;20021;-78
2022/04/14 11:52:24;;;;;;;67.88;21.20;;;;;;;;;;5051683;28;20074;-77
2022/04/14 11:54:51;;;;;;;51.95;17.10;;;;;;;;;;5051425;28;20076;-79
2022/04/14 11:57:31;;;;;;;69.07;25.20;;;;;;;;;;5052185;28;20021;-79
2022/04/14 12:00:09;;;;;;;12.18;6.00;;;;;;;;;;5050120;28;20121;-79
2022/04/14 12:02:36;;;;;;;38.72;17.13;;;;;;;;;;5051353;28;20052;-78
2022/04/14 12:05:02;;;;;;;33.05;14.25;;;;;;;;;;5051732;28;20025;-76
2022/04/14 12:07:47;;;;;;;13.70;6.32;;;;;;;;;;5051191;28;20032;-80
2022/04/14 12:10:15;;;;;;;17.08;7.05;;;;;;;;;;5050404;28;20029;-77
2022/04/14 12:12:42;;;;;;;22.60;8.60;;;;;;;;;;5051415;28;20029;-78
2022/04/14 12:15:09;;;;;;;36.88;13.93;;;;;;;;;;5051490;28;20037;-78
2022/04/14 12:17:36;;;;;;;26.10;10.63;;;;;;;;;;5050866;28;20071;-79
2022/04/14 12:20:04;;;;;;;9.15;4.72;;;;;;;;;;5051408;28;20017;-80
2022/04/14 12:22:31;;;;;;;8.80;3.80;;;;;;;;;;5051352;28;20079;-77
2022/04/14 12:25:04;;;;;;;7.95;4.45;;;;;;;;;;5050715;28;20033;-77
2022/04/14 12:30:21;;;;;;;10.23;5.03;;;;;;;;;;5051034;28;20150;-78
2022/04/14 12:32:47;;;;;;;11.27;5.22;;;;;;;;;;5051761;28;20048;-79
2022/04/14 12:35:39;;;;;;;14.75;6.10;;;;;;;;;;5051037;28;20032;-76
2022/04/14 12:38:17;;;;;;;42.80;19.45;;;;;;;;;;5051073;28;20021;-77
2022/04/14 12:41:02;;;;;;;63.28;27.27;;;;;;;;;;5043817;28;20384;-76
2022/04/14 12:43:33;;;;;;;91.50;38.28;;;;;;;;;;5043926;28;20036;-76
2022/04/14 12:46:01;;;;;;;101.72;41.60;;;;;;;;;;5050819;28;20495;-76
2022/04/14 12:48:37;;;;;;;6.35;3.50;;;;;;;;;;5049869;28;20052;-77
2022/04/14 12:51:03;;;;;;;11.80;6.07;;;;;;;;;;5036118;28;20537;-78
2022/04/14 12:53:29;;;;;;;13.20;7.07;;;;;;;;;;5035048;28;20025;-77
2022/04/14 12:56:11;;;;;;;42.33;17.67;;;;;;;;;;5044773;28;20040;-77
2022/04/14 12:58:37;;;;;;;45.40;19.30;;;;;;;;;;5054271;28;20025;-75
2022/04/14 13:01:07;;;;;;;33.38;13.77;;;;;;;;;;5054252;28;20025;-76
2022/04/14 13:03:44;;;;;;;16.83;8.38;;;;;;;;;;5054393;28;20033;-76
2022/04/14 13:06:17;;;;;;;8.85;4.47;;;;;;;;;;5054430;28;20064;-77
2022/04/14 13:08:43;;;;;;;6.22;3.17;;;;;;;;;;5054678;28;20021;-77
2022/04/14 13:11:09;;;;;;;10.43;5.07;;;;;;;;;;5036919;28;20029;-78
2022/04/14 13:13:35;;;;;;;8.75;5.85;;;;;;;;;;5053775;28;20029;-75
2022/04/14 13:16:02;;;;;;;7.82;3.70;;;;;;;;;;5052928;28;20116;-77
2022/04/14 13:18:29;;;;;;;8.63;5.35;;;;;;;;;;5052090;28;20377;-77
2022/04/14 13:20:55;;;;;;;5.25;3.05;;;;;;;;;;5053282;28;20025;-78
2022/04/14 13:23:22;;;;;;;6.10;2.92;;;;;;;;;;5051179;28;20052;-77
2022/04/14 13:25:48;;;;;;;6.90;2.78;;;;;;;;;;5051869;28;20025;-80
2022/04/14 13:28:15;;;;;;;5.43;2.25;;;;;;;;;;5051586;28;20029;-81
2022/04/14 13:30:41;;;;;;;5.40;3.25;;;;;;;;;;5052373;28;20431;-79
2022/04/14 13:33:07;;;;;;;4.00;2.40;;;;;;;;;;5054618;28;20051;-82
2022/04/14 13:35:34;;;;;;;5.00;2.75;;;;;;;;;;5054534;28;20447;-80
2022/04/14 13:38:00;;;;;;;4.45;2.70;;;;;;;;;;5053138;28;20128;-84
2022/04/14 13:40:26;;;;;;;8.13;2.90;;;;;;;;;;5052986;28;20021;-83
2022/04/14 13:42:52;;;;;;;5.95;2.70;;;;;;;;;;5054380;28;20379;-79
2022/04/14 13:45:18;;;;;;;4.75;2.55;;;;;;;;;;5054335;28;20352;-78
2022/04/14 13:47:45;;;;;;;3.40;2.28;;;;;;;;;;5054254;28;20108;-80
2022/04/14 13:50:11;;;;;;;4.88;2.55;;;;;;;;;;5054312;28;20021;-79
2022/04/14 13:52:38;;;;;;;3.40;2.20;;;;;;;;;;5054598;28;20021;-83
2022/04/14 13:55:05;;;;;;;3.08;2.35;;;;;;;;;;5053952;28;20028;-79
2022/04/14 13:57:31;;;;;;;3.35;2.10;;;;;;;;;;5054249;28;20033;-80
2022/04/14 13:59:57;;;;;;;2.88;1.70;;;;;;;;;;5053585;28;20049;-78
2022/04/14 14:02:23;;;;;;;2.30;1.70;;;;;;;;;;5053721;28;20029;-77
2022/04/14 14:04:49;;;;;;;3.85;2.05;;;;;;;;;;5053953;28;20027;-78
2022/04/14 14:07:15;;;;;;;3.75;2.20;;;;;;;;;;5053295;28;20025;-77
2022/04/14 14:09:41;;;;;;;2.95;1.73;;;;;;;;;;5054304;28;20387;-81
2022/04/14 14:12:08;;;;;;;3.33;1.75;;;;;;;;;;5054015;28;20025;-82
2022/04/14 14:14:34;;;;;;;4.38;2.28;;;;;;;;;;5053731;28;21180;-82
2022/04/14 14:17:00;;;;;;;7.57;3.05;;;;;;;;;;5053337;28;20396;-80
2022/04/14 14:19:26;;;;;;;5.25;2.92;;;;;;;;;;5053792;28;20028;-72
2022/04/14 14:21:58;;;;;;;4.13;2.10;;;;;;;;;;5053516;28;20049;-84
2022/04/14 14:24:24;;;;;;;3.63;2.10;;;;;;;;;;5053404;28;20025;-83
2022/04/14 14:26:50;;;;;;;4.95;2.28;;;;;;;;;;5050392;28;20029;-82
2022/04/14 14:29:16;;;;;;;3.83;2.25;;;;;;;;;;5053503;28;20082;-81
2022/04/14 14:31:45;;;;;;;3.72;2.33;;;;;;;;;;5054045;28;20049;-83
2022/04/14 14:34:11;;;;;;;2.60;2.17;;;;;;;;;;5051927;28;20128;-83
2022/04/14 14:36:37;;;;;;;3.25;2.33;;;;;;;;;;5053379;28;20480;-81
2022/04/14 14:39:04;;;;;;;12.15;5.07;;;;;;;;;;5052059;28;20425;-79
2022/04/14 14:41:30;;;;;;;4.90;2.75;;;;;;;;;;5053002;28;20025;-79
2022/04/14 14:43:58;;;;;;;3.83;2.40;;;;;;;;;;5053102;28;20021;-80
2022/04/14 14:46:24;;;;;;;2.33;1.92;;;;;;;;;;5052182;28;20504;-81
2022/04/14 14:48:51;;;;;;;2.83;1.83;;;;;;;;;;5051685;28;20029;-81